Brainerd Lakes Regional Airport Brainerd US
ICAO: KBRD
IATA: BRD
Category: Medium
Scheduled Services: Yes

Elevation: 1232 ft
TransAlt. 18000 ft.

Airport Communications:
ASOS:126.775
MINNEAPOLIS CNTR:118.05
PRINCETON RDO:123.65
CTAF/UNICOM:122.7

KBRD Zoom In..

If you have problems with the map follow the link
https://www.worldairports.se/pages/airport.php?
ICAO=KBRD

Runways:

(A) RW 05 length 6512 ft width 150 ft
---- / hdg 51

(B) RW 16 length 7100 ft width 150 ft
---- / hdg 160

(C) RW 23 length 6512 ft width 150 ft
ILS 109.90 / hdg 231

(D) RW 34 length 7100 ft width 150 ft
ILS 109.70 / hdg 340

Location; KBRD
Day. 06 / Time. 03.53 Zulu
* Altimeter: 30.14
* Temperature: -02° c. -28.4°f.
* Wind from: 330° Speed 14 kn.
Dewpoint: -07° c.
Visibility: 10 Statute Miles.
Clouds: Overcast 2000 ft.

KBRD 060353Z AUTO 33014KT 10SM OVC020 M02/M07 A3014 RMK AO2 SLP225 T10171067


Wind From 330°
Speed 14 kn.

 
 
jpsmedia worldairports.se 2019   terms of use